Time;durP1;ratioP1;P1;durP2;ratioP2;P2;SDS_P1;SDS_P2;PMS_P1;PMS_P2;Temp;Humidity;BMP_temperature;BMP_pressure;BME280_temperature;BME280_humidity;BME280_pressure;Samples;Min_cycle;Max_cycle;Signal;HPM_P1;HPM_P2
2021/10/15 00:00:17;;;;;;;6.32;1.75;;;;;;;;;;5147226;27;20355;-73
2021/10/15 00:02:43;;;;;;;3.08;1.48;;;;;;;;;;5148755;27;20023;-72
2021/10/15 00:05:09;;;;;;;5.75;2.67;;;;;;;;;;5148767;27;20014;-73
2021/10/15 00:07:35;;;;;;;6.68;1.70;;;;;;;;;;5148626;27;20475;-72
2021/10/15 00:10:02;;;;;;;2.72;1.80;;;;;;;;;;5147253;27;20424;-73
2021/10/15 00:12:28;;;;;;;7.93;1.80;;;;;;;;;;5148360;27;20030;-73
2021/10/15 00:14:54;;;;;;;7.82;2.00;;;;;;;;;;5148525;27;20029;-72
2021/10/15 00:17:20;;;;;;;5.88;2.45;;;;;;;;;;5148205;27;20466;-72
2021/10/15 00:19:46;;;;;;;6.60;2.05;;;;;;;;;;5146994;27;20019;-73
2021/10/15 00:22:13;;;;;;;3.08;1.50;;;;;;;;;;5148503;27;20015;-72
2021/10/15 00:24:39;;;;;;;3.15;1.60;;;;;;;;;;5148507;27;20034;-73
2021/10/15 00:27:05;;;;;;;4.57;1.70;;;;;;;;;;5147688;27;20387;-73
2021/10/15 00:29:31;;;;;;;5.85;1.60;;;;;;;;;;5147639;27;20033;-73
2021/10/15 00:31:57;;;;;;;7.22;1.73;;;;;;;;;;5148847;27;20027;-73
2021/10/15 00:34:23;;;;;;;5.68;2.03;;;;;;;;;;5148512;27;20050;-73
2021/10/15 00:36:49;;;;;;;5.15;1.75;;;;;;;;;;5148485;27;20022;-72
2021/10/15 00:39:16;;;;;;;9.07;1.63;;;;;;;;;;5148314;27;20014;-72
2021/10/15 00:41:42;;;;;;;3.83;1.60;;;;;;;;;;5147749;27;20034;-73
2021/10/15 00:44:09;;;;;;;8.80;1.83;;;;;;;;;;5152506;27;20015;-73
2021/10/15 00:46:36;;;;;;;3.03;1.38;;;;;;;;;;5152404;27;20026;-73
2021/10/15 00:49:03;;;;;;;3.85;1.20;;;;;;;;;;5152533;27;20026;-73
2021/10/15 00:51:30;;;;;;;5.63;1.92;;;;;;;;;;5152388;27;20059;-73
2021/10/15 00:53:57;;;;;;;5.43;1.50;;;;;;;;;;5152284;27;20046;-73
2021/10/15 00:56:23;;;;;;;3.45;1.52;;;;;;;;;;5150570;27;20030;-73
2021/10/15 00:58:49;;;;;;;13.07;2.40;;;;;;;;;;5152290;27;20042;-73
2021/10/15 01:01:15;;;;;;;7.20;1.70;;;;;;;;;;5152192;27;20029;-73
2021/10/15 01:03:42;;;;;;;5.22;1.40;;;;;;;;;;5150700;27;20023;-73
2021/10/15 01:06:08;;;;;;;7.38;1.30;;;;;;;;;;5152702;27;20124;-73
2021/10/15 01:08:37;;;;;;;5.97;1.83;;;;;;;;;;5152218;27;20460;-73
2021/10/15 01:11:03;;;;;;;6.43;1.20;;;;;;;;;;5151999;27;20019;-73
2021/10/15 01:13:30;;;;;;;6.00;1.50;;;;;;;;;;5151817;27;20030;-72
2021/10/15 01:16:03;;;;;;;6.30;1.73;;;;;;;;;;5150483;27;20057;-73
2021/10/15 01:18:29;;;;;;;6.60;1.65;;;;;;;;;;5151987;27;20097;-73
2021/10/15 01:20:55;;;;;;;3.63;1.40;;;;;;;;;;5151870;27;20474;-73
2021/10/15 01:23:21;;;;;;;7.63;1.65;;;;;;;;;;5152039;27;20385;-73
2021/10/15 01:25:51;;;;;;;4.90;1.42;;;;;;;;;;5152283;27;20433;-73
2021/10/15 01:28:17;;;;;;;2.67;1.10;;;;;;;;;;5150061;27;20426;-73
2021/10/15 01:30:43;;;;;;;6.43;1.52;;;;;;;;;;5138640;27;20479;-73
2021/10/15 01:33:09;;;;;;;7.53;1.42;;;;;;;;;;5130948;27;20035;-73
2021/10/15 01:35:36;;;;;;;1.77;1.17;;;;;;;;;;5130917;27;20019;-73
2021/10/15 01:38:02;;;;;;;8.07;1.48;;;;;;;;;;5130689;27;20019;-73
2021/10/15 01:40:28;;;;;;;2.08;1.02;;;;;;;;;;5129124;27;20026;-73
2021/10/15 01:42:54;;;;;;;4.53;1.50;;;;;;;;;;5130514;27;20023;-73
2021/10/15 01:45:21;;;;;;;5.55;1.45;;;;;;;;;;5131151;27;20023;-73
2021/10/15 01:47:47;;;;;;;2.92;1.10;;;;;;;;;;5130646;27;20040;-73
2021/10/15 01:50:13;;;;;;;3.85;1.40;;;;;;;;;;5129332;27;20089;-73
2021/10/15 01:52:39;;;;;;;3.78;1.20;;;;;;;;;;5130262;27;20081;-73
2021/10/15 01:55:07;;;;;;;5.18;1.20;;;;;;;;;;5130330;27;20106;-73
2021/10/15 01:57:33;;;;;;;2.38;1.40;;;;;;;;;;5128330;27;20032;-73
2021/10/15 01:59:59;;;;;;;3.42;1.30;;;;;;;;;;5130627;27;20102;-73
2021/10/15 02:02:25;;;;;;;7.20;1.92;;;;;;;;;;5130878;27;20026;-73
2021/10/15 02:04:52;;;;;;;7.65;1.90;;;;;;;;;;5130263;27;20038;-73
2021/10/15 02:07:18;;;;;;;4.93;1.55;;;;;;;;;;5130283;27;20546;-73
2021/10/15 02:09:45;;;;;;;3.55;1.05;;;;;;;;;;5128876;27;20023;-72
2021/10/15 02:12:11;;;;;;;6.43;1.40;;;;;;;;;;5130434;27;20045;-73
2021/10/15 02:14:37;;;;;;;5.75;1.30;;;;;;;;;;5130503;27;20023;-73
2021/10/15 02:17:03;;;;;;;6.25;1.60;;;;;;;;;;5128754;27;20390;-73
2021/10/15 02:19:29;;;;;;;3.35;1.30;;;;;;;;;;5128339;27;20035;-73
2021/10/15 02:21:56;;;;;;;6.38;2.35;;;;;;;;;;5130319;27;20383;-73
2021/10/15 02:24:22;;;;;;;1.63;1.00;;;;;;;;;;5130468;27;20030;-73
2021/10/15 02:26:48;;;;;;;3.88;1.30;;;;;;;;;;5129992;27;20030;-72
2021/10/15 02:29:14;;;;;;;3.50;1.65;;;;;;;;;;5129895;27;20030;-73
2021/10/15 02:31:40;;;;;;;5.20;1.30;;;;;;;;;;5128341;27;20035;-73
2021/10/15 02:34:07;;;;;;;7.30;1.58;;;;;;;;;;5129959;27;20080;-72
2021/10/15 02:36:33;;;;;;;3.58;1.70;;;;;;;;;;5129539;27;20018;-73
2021/10/15 02:38:59;;;;;;;5.65;1.83;;;;;;;;;;5129840;27;20535;-73
2021/10/15 02:41:25;;;;;;;4.82;1.50;;;;;;;;;;5128214;27;20388;-73
2021/10/15 02:43:51;;;;;;;3.95;1.50;;;;;;;;;;5128097;27;20101;-73
2021/10/15 02:46:18;;;;;;;4.35;1.40;;;;;;;;;;5129577;27;20086;-73
2021/10/15 02:48:44;;;;;;;4.85;1.80;;;;;;;;;;5129283;27;20023;-72
2021/10/15 02:51:11;;;;;;;4.05;1.92;;;;;;;;;;5129119;27;20027;-73
2021/10/15 02:53:38;;;;;;;7.53;1.80;;;;;;;;;;5129480;27;20075;-73
2021/10/15 02:56:05;;;;;;;5.25;2.10;;;;;;;;;;5127897;27;20015;-73
2021/10/15 02:58:31;;;;;;;3.45;1.70;;;;;;;;;;5129413;27;20063;-73
2021/10/15 03:00:57;;;;;;;5.10;1.77;;;;;;;;;;5129571;27;20092;-73
2021/10/15 03:03:23;;;;;;;5.43;1.80;;;;;;;;;;5127241;27;20036;-73
2021/10/15 03:05:50;;;;;;;7.68;1.77;;;;;;;;;;5125423;27;20024;-73
2021/10/15 03:08:16;;;;;;;3.47;1.67;;;;;;;;;;5124753;27;20031;-73
2021/10/15 03:10:42;;;;;;;3.22;1.42;;;;;;;;;;5126616;27;20023;-73
2021/10/15 03:13:08;;;;;;;4.18;1.70;;;;;;;;;;5126797;27;20070;-73
2021/10/15 03:15:34;;;;;;;3.03;1.30;;;;;;;;;;5125036;27;20023;-72
2021/10/15 03:18:00;;;;;;;6.22;1.65;;;;;;;;;;5126756;27;20031;-73
2021/10/15 03:20:27;;;;;;;5.28;1.50;;;;;;;;;;5126656;27;20058;-73
2021/10/15 03:22:53;;;;;;;12.07;1.77;;;;;;;;;;5126204;27;20019;-73
2021/10/15 03:25:19;;;;;;;9.60;1.65;;;;;;;;;;5124814;27;20027;-73
2021/10/15 03:27:45;;;;;;;4.97;1.88;;;;;;;;;;5126333;27;20023;-73
2021/10/15 03:30:11;;;;;;;6.40;1.98;;;;;;;;;;5126226;27;20023;-73
2021/10/15 03:32:37;;;;;;;6.20;1.75;;;;;;;;;;5125834;27;20506;-72
2021/10/15 03:35:04;;;;;;;3.40;1.52;;;;;;;;;;5125939;27;20058;-73
2021/10/15 03:37:30;;;;;;;5.40;1.83;;;;;;;;;;5125105;27;20543;-72
2021/10/15 03:39:56;;;;;;;4.32;1.40;;;;;;;;;;5125559;27;20576;-73
2021/10/15 03:42:22;;;;;;;4.75;1.50;;;;;;;;;;5126161;27;20037;-73
2021/10/15 03:44:48;;;;;;;4.05;1.58;;;;;;;;;;5125835;27;20068;-73
2021/10/15 03:47:15;;;;;;;12.30;2.22;;;;;;;;;;5125966;27;20027;-73
2021/10/15 03:49:41;;;;;;;7.03;1.50;;;;;;;;;;5124062;27;20016;-73
2021/10/15 03:52:07;;;;;;;5.40;1.98;;;;;;;;;;5125695;27;20028;-73
2021/10/15 03:54:34;;;;;;;6.38;1.90;;;;;;;;;;5125438;27;20035;-72
2021/10/15 03:57:00;;;;;;;3.38;1.50;;;;;;;;;;5125499;27;20023;-73
2021/10/15 03:59:26;;;;;;;4.30;1.65;;;;;;;;;;5124185;27;20068;-72
2021/10/15 04:01:52;;;;;;;4.15;1.42;;;;;;;;;;5125727;27;20102;-72
2021/10/15 04:04:20;;;;;;;4.15;1.50;;;;;;;;;;5125167;27;20126;-73
2021/10/15 04:06:46;;;;;;;3.88;1.67;;;;;;;;;;5125522;27;20057;-73
2021/10/15 04:09:12;;;;;;;3.85;1.60;;;;;;;;;;5125907;27;20857;-73
2021/10/15 04:11:38;;;;;;;3.50;1.40;;;;;;;;;;5125520;27;20046;-73
2021/10/15 04:14:04;;;;;;;5.78;1.58;;;;;;;;;;5123778;27;20030;-73
2021/10/15 04:16:31;;;;;;;4.18;1.70;;;;;;;;;;5125163;27;20023;-73
2021/10/15 04:18:57;;;;;;;3.00;1.60;;;;;;;;;;5125492;27;20019;-72
2021/10/15 04:21:23;;;;;;;4.55;1.60;;;;;;;;;;5124011;27;20172;-73
2021/10/15 04:23:49;;;;;;;5.18;1.70;;;;;;;;;;5125656;27;20035;-73
2021/10/15 04:26:15;;;;;;;7.10;1.67;;;;;;;;;;5125704;27;20023;-73
2021/10/15 04:28:41;;;;;;;2.80;1.52;;;;;;;;;;5124988;27;20030;-73
2021/10/15 04:31:07;;;;;;;2.50;1.90;;;;;;;;;;5125249;27;20034;-73
2021/10/15 04:33:33;;;;;;;3.28;1.55;;;;;;;;;;5124852;27;20028;-72
2021/10/15 04:36:00;;;;;;;6.20;1.98;;;;;;;;;;5123147;27;20072;-73
2021/10/15 04:38:26;;;;;;;3.00;1.75;;;;;;;;;;5125282;27;20025;-72
2021/10/15 04:40:52;;;;;;;5.47;1.65;;;;;;;;;;5125316;28;20015;-73
2021/10/15 04:43:18;;;;;;;7.55;1.77;;;;;;;;;;5125233;28;20015;-73
2021/10/15 04:45:44;;;;;;;4.90;1.67;;;;;;;;;;5123452;28;20395;-72
2021/10/15 04:48:10;;;;;;;3.25;1.50;;;;;;;;;;5124678;28;20023;-72
2021/10/15 04:50:37;;;;;;;3.85;1.60;;;;;;;;;;5125403;28;20027;-72
2021/10/15 04:53:04;;;;;;;2.65;1.48;;;;;;;;;;5124852;28;20031;-73
2021/10/15 04:55:31;;;;;;;4.82;1.67;;;;;;;;;;5124862;27;20030;-72
2021/10/15 04:57:57;;;;;;;4.05;1.60;;;;;;;;;;5123641;28;20130;-73
2021/10/15 05:00:24;;;;;;;3.72;1.20;;;;;;;;;;5124576;27;20023;-73
2021/10/15 05:02:51;;;;;;;4.05;1.45;;;;;;;;;;5125272;28;20210;-73
2021/10/15 05:05:24;;;;;;;6.63;1.73;;;;;;;;;;5123351;27;20015;-72
2021/10/15 05:07:50;;;;;;;6.57;1.98;;;;;;;;;;5124718;27;20132;-73
2021/10/15 05:10:17;;;;;;;2.90;1.40;;;;;;;;;;5124979;27;20045;-72
2021/10/15 05:12:43;;;;;;;2.70;1.15;;;;;;;;;;5124606;28;20393;-72
2021/10/15 05:15:10;;;;;;;8.32;1.48;;;;;;;;;;5124861;28;20093;-73
2021/10/15 05:17:37;;;;;;;4.28;1.73;;;;;;;;;;5123421;28;20175;-72
2021/10/15 05:20:07;;;;;;;2.78;1.40;;;;;;;;;;5124930;28;20076;-72
2021/10/15 05:22:33;;;;;;;3.22;1.40;;;;;;;;;;5124976;28;20028;-73
2021/10/15 05:25:00;;;;;;;4.28;1.13;;;;;;;;;;5124863;28;20026;-73
2021/10/15 05:27:27;;;;;;;5.05;1.40;;;;;;;;;;5123095;27;20388;-73
2021/10/15 05:29:53;;;;;;;3.90;1.63;;;;;;;;;;5128630;27;20295;-72
2021/10/15 05:32:20;;;;;;;3.22;1.50;;;;;;;;;;5128447;27;20057;-72
2021/10/15 05:34:46;;;;;;;5.20;1.65;;;;;;;;;;5128524;27;20106;-72
2021/10/15 05:37:13;;;;;;;7.20;1.50;;;;;;;;;;5126932;27;20035;-72
2021/10/15 05:39:39;;;;;;;7.10;1.65;;;;;;;;;;5128731;27;20039;-72
2021/10/15 05:42:05;;;;;;;6.18;1.75;;;;;;;;;;5128088;27;20019;-73
2021/10/15 05:44:32;;;;;;;7.40;1.85;;;;;;;;;;5126494;27;20134;-72
2021/10/15 05:47:05;;;;;;;8.95;2.00;;;;;;;;;;5128018;27;20023;-72
2021/10/15 05:49:32;;;;;;;5.60;1.50;;;;;;;;;;5148356;27;20033;-72
2021/10/15 05:52:13;;;;;;;3.92;1.48;;;;;;;;;;5148501;27;20447;-72
2021/10/15 05:59:44;;;;;;;3.63;1.40;;;;;;;;;;5148573;27;20050;-73
2021/10/15 06:02:10;;;;;;;5.60;1.83;;;;;;;;;;5148172;27;20031;-72
2021/10/15 06:15:29;;;;;;;2.85;1.48;;;;;;;;;;5148355;27;20033;-72
2021/10/15 06:17:56;;;;;;;3.88;1.70;;;;;;;;;;5148190;27;20465;-72
2021/10/15 06:20:23;;;;;;;2.35;1.45;;;;;;;;;;5147133;27;20019;-72
2021/10/15 06:22:49;;;;;;;2.55;1.60;;;;;;;;;;5147212;27;20025;-73
2021/10/15 06:25:16;;;;;;;3.97;1.70;;;;;;;;;;5147471;27;20026;-72
2021/10/15 06:27:42;;;;;;;4.75;1.52;;;;;;;;;;5147937;27;20053;-72
2021/10/15 06:30:09;;;;;;;5.05;1.75;;;;;;;;;;5147880;27;20481;-72
2021/10/15 06:32:35;;;;;;;7.03;1.65;;;;;;;;;;5145577;27;20039;-72
2021/10/15 06:35:01;;;;;;;5.00;1.90;;;;;;;;;;5148317;27;20023;-72
2021/10/15 06:37:27;;;;;;;6.63;1.70;;;;;;;;;;5148124;27;20034;-72
2021/10/15 06:39:53;;;;;;;8.30;2.38;;;;;;;;;;5146550;27;20111;-72
2021/10/15 06:42:19;;;;;;;7.43;1.55;;;;;;;;;;5146308;27;20015;-73
2021/10/15 06:44:46;;;;;;;3.83;1.40;;;;;;;;;;5148023;27;20030;-73
2021/10/15 06:47:12;;;;;;;4.45;1.58;;;;;;;;;;5147712;27;20031;-73
2021/10/15 06:49:38;;;;;;;6.53;1.60;;;;;;;;;;5147632;27;20030;-73
2021/10/15 06:52:04;;;;;;;3.95;1.65;;;;;;;;;;5145585;27;20512;-73
2021/10/15 06:54:30;;;;;;;3.25;1.52;;;;;;;;;;5147834;27;20076;-72
2021/10/15 06:56:56;;;;;;;4.68;1.30;;;;;;;;;;5147468;27;20033;-73
2021/10/15 06:59:23;;;;;;;3.65;1.35;;;;;;;;;;5147525;27;20050;-73
2021/10/15 07:01:50;;;;;;;5.85;1.63;;;;;;;;;;5147495;27;20404;-73
2021/10/15 07:04:17;;;;;;;6.47;2.00;;;;;;;;;;5145964;27;20015;-73
2021/10/15 07:06:43;;;;;;;3.22;1.58;;;;;;;;;;5147622;27;20023;-73
2021/10/15 07:09:09;;;;;;;5.18;1.60;;;;;;;;;;5147622;27;20026;-72
2021/10/15 07:11:38;;;;;;;8.43;2.03;;;;;;;;;;5147391;27;20485;-72
2021/10/15 07:14:04;;;;;;;3.30;1.45;;;;;;;;;;5147338;27;20035;-73
2021/10/15 07:16:31;;;;;;;5.65;1.80;;;;;;;;;;5147083;27;20014;-72
2021/10/15 07:18:57;;;;;;;4.03;2.13;;;;;;;;;;5145902;27;20663;-72
2021/10/15 07:21:23;;;;;;;5.35;1.60;;;;;;;;;;5147356;27;20521;-72
2021/10/15 07:23:50;;;;;;;6.38;1.90;;;;;;;;;;5145373;27;20519;-73
2021/10/15 07:26:16;;;;;;;4.68;1.50;;;;;;;;;;5146665;27;20030;-73
2021/10/15 07:28:42;;;;;;;4.05;1.70;;;;;;;;;;5146788;27;20030;-73
2021/10/15 07:31:08;;;;;;;7.38;1.98;;;;;;;;;;5145779;27;20023;-72
2021/10/15 07:33:34;;;;;;;5.72;1.70;;;;;;;;;;5146493;27;20045;-72
2021/10/15 07:36:01;;;;;;;5.63;1.90;;;;;;;;;;5146844;27;20510;-72
2021/10/15 07:38:27;;;;;;;7.22;1.67;;;;;;;;;;5146553;27;20018;-72
2021/10/15 07:40:53;;;;;;;6.68;1.80;;;;;;;;;;5147307;27;20429;-72
2021/10/15 07:43:19;;;;;;;7.20;1.73;;;;;;;;;;5144771;27;20026;-72
2021/10/15 07:45:45;;;;;;;4.80;2.10;;;;;;;;;;5146392;27;20385;-73
2021/10/15 07:48:11;;;;;;;4.00;1.58;;;;;;;;;;5146683;27;20045;-73
2021/10/15 07:50:38;;;;;;;4.53;1.70;;;;;;;;;;5146373;27;20014;-73
2021/10/15 07:53:04;;;;;;;6.55;1.83;;;;;;;;;;5145368;27;20035;-73
2021/10/15 07:55:30;;;;;;;5.40;1.60;;;;;;;;;;5143332;27;20054;-73
2021/10/15 07:57:56;;;;;;;4.55;1.90;;;;;;;;;;5146127;27;20055;-73
2021/10/15 08:00:22;;;;;;;9.02;3.50;;;;;;;;;;5146177;27;20031;-73
2021/10/15 08:02:50;;;;;;;3.55;1.55;;;;;;;;;;5146271;27;20019;-73
2021/10/15 08:05:17;;;;;;;4.10;1.63;;;;;;;;;;5146294;27;20015;-73
2021/10/15 08:07:44;;;;;;;4.40;1.55;;;;;;;;;;5144329;27;20081;-73
2021/10/15 08:10:10;;;;;;;9.18;1.90;;;;;;;;;;5146048;27;20036;-73
2021/10/15 08:12:37;;;;;;;4.10;1.60;;;;;;;;;;5146207;27;20035;-72
2021/10/15 08:15:04;;;;;;;2.83;1.58;;;;;;;;;;5145947;27;20019;-72
2021/10/15 08:17:30;;;;;;;7.45;1.83;;;;;;;;;;5144390;27;20083;-73
2021/10/15 08:19:56;;;;;;;6.63;2.20;;;;;;;;;;5145813;27;20015;-72
2021/10/15 08:22:23;;;;;;;4.70;1.40;;;;;;;;;;5146247;27;20056;-72
2021/10/15 08:24:49;;;;;;;4.90;1.83;;;;;;;;;;5145319;27;20026;-72
2021/10/15 08:27:15;;;;;;;5.07;1.83;;;;;;;;;;5145540;27;20042;-72
2021/10/15 08:29:42;;;;;;;5.22;2.00;;;;;;;;;;5144742;27;20109;-73
2021/10/15 08:32:08;;;;;;;5.95;2.00;;;;;;;;;;5146212;27;20030;-73
2021/10/15 08:34:35;;;;;;;4.47;1.77;;;;;;;;;;5145791;27;20091;-72
2021/10/15 08:37:01;;;;;;;4.85;1.83;;;;;;;;;;5145765;27;20105;-72
2021/10/15 08:39:28;;;;;;;5.20;2.03;;;;;;;;;;5145796;27;20362;-73
2021/10/15 08:41:55;;;;;;;4.70;1.80;;;;;;;;;;5145629;27;20034;-72
2021/10/15 08:44:22;;;;;;;3.40;1.65;;;;;;;;;;5144098;27;20106;-72
2021/10/15 08:46:48;;;;;;;6.95;1.60;;;;;;;;;;5146031;27;20015;-73
2021/10/15 08:49:14;;;;;;;4.50;1.52;;;;;;;;;;5145627;27;20046;-73
2021/10/15 08:51:40;;;;;;;5.80;1.77;;;;;;;;;;5145275;27;20066;-72
2021/10/15 08:54:07;;;;;;;5.13;1.80;;;;;;;;;;5143930;27;20053;-73
2021/10/15 08:56:40;;;;;;;7.55;1.85;;;;;;;;;;5145815;27;20099;-73
2021/10/15 08:59:09;;;;;;;3.70;1.52;;;;;;;;;;5145982;27;20046;-73
2021/10/15 09:01:44;;;;;;;4.28;1.50;;;;;;;;;;5144318;27;20029;-73
2021/10/15 09:04:11;;;;;;;4.65;2.10;;;;;;;;;;5148626;27;20067;-73
2021/10/15 09:06:39;;;;;;;8.50;1.88;;;;;;;;;;5149739;27;20365;-73
2021/10/15 09:09:06;;;;;;;4.00;1.90;;;;;;;;;;5149582;27;20015;-73
2021/10/15 09:11:38;;;;;;;3.33;1.75;;;;;;;;;;5149959;27;20602;-73
2021/10/15 09:14:10;;;;;;;10.23;1.45;;;;;;;;;;5146456;27;20034;-72
2021/10/15 09:16:54;;;;;;;3.67;1.55;;;;;;;;;;5149479;27;20058;-73
2021/10/15 09:19:24;;;;;;;12.60;1.98;;;;;;;;;;5149803;27;20027;-73
2021/10/15 09:22:09;;;;;;;4.88;1.90;;;;;;;;;;5149661;27;20168;-73
2021/10/15 09:24:41;;;;;;;2.97;1.40;;;;;;;;;;5149322;27;20259;-73
2021/10/15 09:27:27;;;;;;;7.90;1.83;;;;;;;;;;5147175;27;20015;-73
2021/10/15 09:29:57;;;;;;;5.13;1.98;;;;;;;;;;5149731;27;20030;-73
2021/10/15 09:32:25;;;;;;;3.40;1.70;;;;;;;;;;5149193;27;20141;-72
2021/10/15 09:34:52;;;;;;;5.25;1.92;;;;;;;;;;5148782;27;20018;-73
2021/10/15 09:37:20;;;;;;;5.80;2.00;;;;;;;;;;5148916;27;20498;-72
2021/10/15 09:39:46;;;;;;;8.18;2.70;;;;;;;;;;5147072;27;20030;-73
2021/10/15 09:42:31;;;;;;;14.40;2.42;;;;;;;;;;5149053;27;20139;-73
2021/10/15 09:45:15;;;;;;;6.75;2.05;;;;;;;;;;5149082;27;20022;-73
2021/10/15 09:47:45;;;;;;;6.82;2.17;;;;;;;;;;5148667;27;20050;-73
2021/10/15 09:50:12;;;;;;;7.03;2.05;;;;;;;;;;5148931;27;20019;-73
2021/10/15 09:52:45;;;;;;;3.67;2.00;;;;;;;;;;5147008;27;20031;-73
2021/10/15 09:55:16;;;;;;;9.82;2.67;;;;;;;;;;5148689;27;20091;-73
2021/10/15 09:57:44;;;;;;;6.63;2.55;;;;;;;;;;5148480;27;20062;-73
2021/10/15 10:00:15;;;;;;;8.73;2.38;;;;;;;;;;5148568;27;20054;-73
2021/10/15 10:02:41;;;;;;;10.13;2.63;;;;;;;;;;5148077;27;20102;-73
2021/10/15 10:05:13;;;;;;;5.75;2.17;;;;;;;;;;5148645;27;20083;-73
2021/10/15 10:07:39;;;;;;;8.75;2.75;;;;;;;;;;5147244;27;20037;-73
2021/10/15 10:10:07;;;;;;;4.22;2.13;;;;;;;;;;5148308;27;20042;-73
2021/10/15 10:12:37;;;;;;;8.13;2.47;;;;;;;;;;5148462;27;20035;-73
2021/10/15 10:15:08;;;;;;;10.13;2.40;;;;;;;;;;5146816;27;20881;-72
2021/10/15 10:17:41;;;;;;;5.90;2.30;;;;;;;;;;5146685;27;20023;-73
2021/10/15 10:20:17;;;;;;;8.98;3.15;;;;;;;;;;5148398;27;20019;-73
2021/10/15 10:23:03;;;;;;;7.13;2.80;;;;;;;;;;5148383;27;20050;-73
2021/10/15 10:25:30;;;;;;;11.88;2.88;;;;;;;;;;5147836;27;20081;-73
2021/10/15 10:27:57;;;;;;;5.28;2.50;;;;;;;;;;5146557;27;20034;-73
2021/10/15 10:30:37;;;;;;;5.40;2.55;;;;;;;;;;5148102;27;20382;-73
2021/10/15 10:33:03;;;;;;;6.43;2.83;;;;;;;;;;5148192;27;20027;-73
2021/10/15 10:35:30;;;;;;;9.70;3.65;;;;;;;;;;5148448;27;20416;-72
2021/10/15 10:38:15;;;;;;;6.57;2.38;;;;;;;;;;5148000;27;20171;-72
2021/10/15 10:41:00;;;;;;;4.50;2.40;;;;;;;;;;5147976;27;20026;-73
2021/10/15 10:43:26;;;;;;;4.80;2.40;;;;;;;;;;5145995;27;20054;-73
2021/10/15 10:46:11;;;;;;;5.35;2.92;;;;;;;;;;5147616;27;20033;-73
2021/10/15 10:48:50;;;;;;;8.85;2.60;;;;;;;;;;5147598;27;20462;-73
2021/10/15 10:51:17;;;;;;;7.70;2.90;;;;;;;;;;5147771;27;20026;-73
2021/10/15 10:54:02;;;;;;;10.27;2.40;;;;;;;;;;5146126;27;20035;-73
2021/10/15 10:56:38;;;;;;;4.13;2.17;;;;;;;;;;5147832;27;20022;-73
2021/10/15 10:59:17;;;;;;;6.13;1.98;;;;;;;;;;5147343;27;20074;-73
2021/10/15 11:01:46;;;;;;;6.03;2.05;;;;;;;;;;5147796;27;20019;-73
2021/10/15 11:04:28;;;;;;;5.25;2.90;;;;;;;;;;5147525;27;20026;-73
2021/10/15 11:06:57;;;;;;;6.68;2.30;;;;;;;;;;5147550;27;20442;-73
2021/10/15 11:09:38;;;;;;;10.32;2.80;;;;;;;;;;5145886;27;20025;-73
2021/10/15 11:12:04;;;;;;;7.57;2.10;;;;;;;;;;5146898;27;20027;-73
2021/10/15 11:14:56;;;;;;;6.10;2.28;;;;;;;;;;5147227;27;20050;-73
2021/10/15 11:17:27;;;;;;;6.55;2.05;;;;;;;;;;5123069;27;20060;-73
2021/10/15 11:20:11;;;;;;;8.20;2.20;;;;;;;;;;5145688;27;20019;-73
2021/10/15 11:22:38;;;;;;;3.35;2.15;;;;;;;;;;5147005;27;20039;-73
2021/10/15 11:25:05;;;;;;;6.38;2.20;;;;;;;;;;5146488;27;20019;-73
2021/10/15 11:27:32;;;;;;;4.68;1.92;;;;;;;;;;5146827;27;20030;-73
2021/10/15 11:29:59;;;;;;;7.82;2.30;;;;;;;;;;5145564;27;20019;-73
2021/10/15 11:32:39;;;;;;;6.65;1.98;;;;;;;;;;5145925;27;20619;-73
2021/10/15 11:35:08;;;;;;;4.47;1.90;;;;;;;;;;5147013;27;20033;-73
2021/10/15 11:37:44;;;;;;;17.48;2.30;;;;;;;;;;5146863;27;20022;-73
2021/10/15 11:40:21;;;;;;;4.13;1.75;;;;;;;;;;5145336;27;20331;-73
2021/10/15 11:42:47;;;;;;;5.72;1.83;;;;;;;;;;5146676;27;20430;-73
2021/10/15 11:45:36;;;;;;;14.65;2.45;;;;;;;;;;5146870;27;20499;-73
2021/10/15 11:48:07;;;;;;;7.93;1.73;;;;;;;;;;5136777;27;20041;-73
2021/10/15 11:50:39;;;;;;;3.70;1.50;;;;;;;;;;5146753;27;20079;-73
2021/10/15 11:53:06;;;;;;;3.42;1.85;;;;;;;;;;5146783;27;20090;-73
2021/10/15 11:55:35;;;;;;;5.55;1.60;;;;;;;;;;5146718;27;20022;-73
2021/10/15 11:58:19;;;;;;;2.45;1.35;;;;;;;;;;5146891;27;20500;-73
2021/10/15 12:00:58;;;;;;;5.45;1.95;;;;;;;;;;5146168;27;20034;-73
2021/10/15 12:03:35;;;;;;;6.15;1.52;;;;;;;;;;5145109;27;20049;-73
2021/10/15 12:06:11;;;;;;;3.92;1.88;;;;;;;;;;5146435;27;20195;-73
2021/10/15 12:08:38;;;;;;;3.75;1.60;;;;;;;;;;5146470;27;20027;-73
2021/10/15 12:11:06;;;;;;;6.32;1.92;;;;;;;;;;5146475;27;20018;-73
2021/10/15 12:13:32;;;;;;;3.33;1.30;;;;;;;;;;5146002;27;20387;-73
2021/10/15 12:15:58;;;;;;;3.60;1.60;;;;;;;;;;5144181;27;20023;-73
2021/10/15 12:18:30;;;;;;;4.78;1.10;;;;;;;;;;5146615;27;20031;-73
2021/10/15 12:21:12;;;;;;;4.07;1.20;;;;;;;;;;5146117;27;20466;-73
2021/10/15 12:23:53;;;;;;;5.35;1.70;;;;;;;;;;5146481;27;20098;-73
2021/10/15 12:26:20;;;;;;;4.35;2.20;;;;;;;;;;5146023;27;20031;-73
2021/10/15 12:28:47;;;;;;;4.50;2.60;;;;;;;;;;5145883;27;20109;-73
2021/10/15 12:31:23;;;;;;;4.30;2.78;;;;;;;;;;5144066;27;20015;-73
2021/10/15 12:34:07;;;;;;;6.00;2.58;;;;;;;;;;5145726;27;20035;-73
2021/10/15 12:36:35;;;;;;;5.35;2.10;;;;;;;;;;5145746;27;20030;-73
2021/10/15 12:39:19;;;;;;;4.63;2.00;;;;;;;;;;5144071;27;20030;-73
2021/10/15 12:41:46;;;;;;;5.88;1.83;;;;;;;;;;5145931;27;20481;-73
2021/10/15 12:44:19;;;;;;;6.30;1.67;;;;;;;;;;5145782;27;20063;-73
2021/10/15 12:46:59;;;;;;;4.60;1.95;;;;;;;;;;5144165;27;20024;-73
2021/10/15 12:49:26;;;;;;;11.38;6.50;;;;;;;;;;5145825;27;20035;-73
2021/10/15 12:51:52;;;;;;;9.65;4.60;;;;;;;;;;5145424;27;20034;-73
2021/10/15 12:54:37;;;;;;;8.35;2.88;;;;;;;;;;5146139;27;20019;-73
2021/10/15 12:57:14;;;;;;;6.63;3.00;;;;;;;;;;5145726;27;20118;-73
2021/10/15 12:59:41;;;;;;;9.57;2.50;;;;;;;;;;5145280;27;20118;-73
2021/10/15 13:02:10;;;;;;;12.10;2.78;;;;;;;;;;5144105;27;20065;-73
2021/10/15 13:04:37;;;;;;;6.93;2.58;;;;;;;;;;5145536;27;20474;-73
2021/10/15 13:07:04;;;;;;;10.15;4.78;;;;;;;;;;5145610;27;20049;-73
2021/10/15 13:09:31;;;;;;;11.48;5.85;;;;;;;;;;5145644;27;20026;-73
2021/10/15 13:12:01;;;;;;;19.20;12.07;;;;;;;;;;5145735;27;20026;-73
2021/10/15 13:14:29;;;;;;;10.90;6.90;;;;;;;;;;5144112;27;20022;-73
2021/10/15 13:16:56;;;;;;;7.22;3.67;;;;;;;;;;5146047;27;20035;-72
2021/10/15 13:19:22;;;;;;;5.90;2.03;;;;;;;;;;5145809;27;20022;-73
2021/10/15 13:21:48;;;;;;;8.38;3.17;;;;;;;;;;5145418;27;20538;-73
2021/10/15 13:24:14;;;;;;;5.75;2.83;;;;;;;;;;5145300;27;20027;-73
2021/10/15 13:26:42;;;;;;;6.32;2.83;;;;;;;;;;5145341;27;20026;-73
2021/10/15 13:29:08;;;;;;;10.68;2.67;;;;;;;;;;5143817;27;20555;-73
2021/10/15 13:31:34;;;;;;;8.38;1.73;;;;;;;;;;5145508;27;20033;-73
2021/10/15 13:34:01;;;;;;;5.00;2.33;;;;;;;;;;5145158;27;20034;-73
2021/10/15 13:36:27;;;;;;;7.10;3.20;;;;;;;;;;5145587;27;20051;-72
2021/10/15 13:38:54;;;;;;;8.23;2.72;;;;;;;;;;5143780;27;20093;-72
2021/10/15 13:41:25;;;;;;;5.72;2.38;;;;;;;;;;5143403;27;20411;-73
2021/10/15 13:44:10;;;;;;;7.38;2.38;;;;;;;;;;5145109;27;20509;-73
2021/10/15 13:46:54;;;;;;;8.10;2.30;;;;;;;;;;5145392;27;20027;-73
2021/10/15 13:52:06;;;;;;;7.93;3.08;;;;;;;;;;5148776;27;20505;-73
2021/10/15 13:54:32;;;;;;;5.47;1.98;;;;;;;;;;5148954;27;20053;-73
2021/10/15 13:57:02;;;;;;;5.28;1.60;;;;;;;;;;5148765;27;20027;-73
2021/10/15 13:59:31;;;;;;;5.70;1.63;;;;;;;;;;5147250;27;20042;-73
2021/10/15 14:01:58;;;;;;;8.80;2.30;;;;;;;;;;5148965;27;20098;-73
2021/10/15 14:04:33;;;;;;;5.88;2.10;;;;;;;;;;5148948;27;20378;-73
2021/10/15 14:06:59;;;;;;;6.95;2.28;;;;;;;;;;5148844;27;20026;-73
2021/10/15 14:09:25;;;;;;;4.72;1.70;;;;;;;;;;5146900;27;20110;-73
2021/10/15 14:11:51;;;;;;;8.63;2.33;;;;;;;;;;5148538;27;20097;-73
2021/10/15 14:14:18;;;;;;;8.70;1.65;;;;;;;;;;5149292;27;20034;-73
2021/10/15 14:16:44;;;;;;;4.65;1.50;;;;;;;;;;5148203;27;20030;-73
2021/10/15 14:19:10;;;;;;;7.22;1.40;;;;;;;;;;5148327;27;20079;-73
2021/10/15 14:21:38;;;;;;;5.45;1.65;;;;;;;;;;5148256;27;20023;-73
2021/10/15 14:24:04;;;;;;;5.57;1.55;;;;;;;;;;5146964;27;20019;-73
2021/10/15 14:26:31;;;;;;;4.30;1.55;;;;;;;;;;5148313;27;20023;-73
2021/10/15 14:28:57;;;;;;;9.65;1.55;;;;;;;;;;5148505;27;20127;-72
2021/10/15 14:31:23;;;;;;;5.05;1.77;;;;;;;;;;5146837;27;20111;-73
2021/10/15 14:33:49;;;;;;;5.18;1.38;;;;;;;;;;5147563;27;20034;-73
2021/10/15 14:36:15;;;;;;;6.47;1.63;;;;;;;;;;5147792;27;20083;-72
2021/10/15 14:38:42;;;;;;;6.38;1.30;;;;;;;;;;5148195;27;20055;-73
2021/10/15 14:41:08;;;;;;;8.00;1.98;;;;;;;;;;5146386;27;20091;-73
2021/10/15 14:43:37;;;;;;;7.85;1.42;;;;;;;;;;5147611;27;20030;-73
2021/10/15 14:46:03;;;;;;;14.73;1.88;;;;;;;;;;5147713;27;20018;-73
2021/10/15 14:48:30;;;;;;;5.20;1.77;;;;;;;;;;5148030;27;20038;-73
2021/10/15 14:50:56;;;;;;;5.25;1.10;;;;;;;;;;5146358;27;20127;-73
2021/10/15 14:53:22;;;;;;;7.90;1.38;;;;;;;;;;5147853;27;20512;-73
2021/10/15 14:55:48;;;;;;;4.05;1.40;;;;;;;;;;5147568;27;20471;-73
2021/10/15 14:58:14;;;;;;;7.68;1.35;;;;;;;;;;5147356;27;20046;-73
2021/10/15 15:00:41;;;;;;;3.90;1.52;;;;;;;;;;5146689;27;20049;-73
2021/10/15 15:03:07;;;;;;;8.35;1.88;;;;;;;;;;5145563;27;20422;-73
2021/10/15 15:05:34;;;;;;;3.70;1.48;;;;;;;;;;5147304;27;20018;-73
2021/10/15 15:08:00;;;;;;;10.10;1.60;;;;;;;;;;5147590;27;20030;-72